sensor_id;sensor_type;location;lat;lon;timestamp;P1;P4;P2;P0;N10;N4;N25;N1;N05;TS
60227;SPS30;46091;46.512;6.626;2023-03-11T00:00:06;5.00;;4.00;;;;;;;
60227;SPS30;46091;46.512;6.626;2023-03-11T00:02:13;4.00;;3.00;;;;;;;
60227;SPS30;46091;46.512;6.626;2023-03-11T00:04:17;3.00;;2.00;;;;;;;
60227;SPS30;46091;46.512;6.626;2023-03-11T00:06:20;3.00;;2.00;;;;;;;
60227;SPS30;46091;46.512;6.626;2023-03-11T00:08:24;3.00;;2.00;;;;;;;
60227;SPS30;46091;46.512;6.626;2023-03-11T00:10:28;4.00;;3.00;;;;;;;
60227;SPS30;46091;46.512;6.626;2023-03-11T00:14:52;3.75;;2.75;;;;;;;
60227;SPS30;46091;46.512;6.626;2023-03-11T00:16:55;3.00;;2.00;;;;;;;
60227;SPS30;46091;46.512;6.626;2023-03-11T00:18:58;7.67;;6.67;;;;;;;
60227;SPS30;46091;46.512;6.626;2023-03-11T00:21:00;2.00;;1.00;;;;;;;
60227;SPS30;46091;46.512;6.626;2023-03-11T00:23:03;2.75;;1.75;;;;;;;
60227;SPS30;46091;46.512;6.626;2023-03-11T00:25:10;3.00;;2.00;;;;;;;
60227;SPS30;46091;46.512;6.626;2023-03-11T00:27:13;3.00;;2.00;;;;;;;
60227;SPS30;46091;46.512;6.626;2023-03-11T00:29:16;4.75;;3.75;;;;;;;
60227;SPS30;46091;46.512;6.626;2023-03-11T00:31:19;2.00;;1.00;;;;;;;
60227;SPS30;46091;46.512;6.626;2023-03-11T00:33:22;3.00;;2.00;;;;;;;
60227;SPS30;46091;46.512;6.626;2023-03-11T00:35:27;3.25;;2.25;;;;;;;
60227;SPS30;46091;46.512;6.626;2023-03-11T00:37:31;2.00;;1.00;;;;;;;
60227;SPS30;46091;46.512;6.626;2023-03-11T00:39:34;3.00;;2.00;;;;;;;
60227;SPS30;46091;46.512;6.626;2023-03-11T00:41:39;4.75;;3.75;;;;;;;
60227;SPS30;46091;46.512;6.626;2023-03-11T00:43:41;8.00;;7.00;;;;;;;
60227;SPS30;46091;46.512;6.626;2023-03-11T00:45:44;7.50;;6.50;;;;;;;
60227;SPS30;46091;46.512;6.626;2023-03-11T00:47:47;3.25;;2.25;;;;;;;
60227;SPS30;46091;46.512;6.626;2023-03-11T00:49:51;2.00;;1.00;;;;;;;
60227;SPS30;46091;46.512;6.626;2023-03-11T00:51:54;3.00;;2.00;;;;;;;
60227;SPS30;46091;46.512;6.626;2023-03-11T00:53:57;4.67;;3.67;;;;;;;
60227;SPS30;46091;46.512;6.626;2023-03-11T00:56:05;2.50;;1.50;;;;;;;
60227;SPS30;46091;46.512;6.626;2023-03-11T00:58:10;2.75;;1.75;;;;;;;
60227;SPS30;46091;46.512;6.626;2023-03-11T01:00:14;5.00;;4.00;;;;;;;
60227;SPS30;46091;46.512;6.626;2023-03-11T01:02:18;3.00;;2.00;;;;;;;
60227;SPS30;46091;46.512;6.626;2023-03-11T01:04:22;3.00;;2.00;;;;;;;
60227;SPS30;46091;46.512;6.626;2023-03-11T01:06:24;3.00;;2.00;;;;;;;
60227;SPS30;46091;46.512;6.626;2023-03-11T01:08:39;3.75;;2.75;;;;;;;
60227;SPS30;46091;46.512;6.626;2023-03-11T01:10:43;4.00;;3.00;;;;;;;
60227;SPS30;46091;46.512;6.626;2023-03-11T01:12:46;4.50;;3.50;;;;;;;
60227;SPS30;46091;46.512;6.626;2023-03-11T01:14:50;3.00;;2.00;;;;;;;
60227;SPS30;46091;46.512;6.626;2023-03-11T01:16:53;2.00;;1.00;;;;;;;
60227;SPS30;46091;46.512;6.626;2023-03-11T01:18:57;4.00;;3.00;;;;;;;
60227;SPS30;46091;46.512;6.626;2023-03-11T01:20:59;2.00;;1.00;;;;;;;
60227;SPS30;46091;46.512;6.626;2023-03-11T01:23:03;2.00;;1.00;;;;;;;
60227;SPS30;46091;46.512;6.626;2023-03-11T01:25:06;2.00;;1.00;;;;;;;
60227;SPS30;46091;46.512;6.626;2023-03-11T01:27:10;3.00;;2.00;;;;;;;
60227;SPS30;46091;46.512;6.626;2023-03-11T01:29:13;5.50;;4.50;;;;;;;
60227;SPS30;46091;46.512;6.626;2023-03-11T01:31:17;4.00;;3.00;;;;;;;
60227;SPS30;46091;46.512;6.626;2023-03-11T01:33:20;5.00;;4.00;;;;;;;
60227;SPS30;46091;46.512;6.626;2023-03-11T01:35:24;4.00;;3.00;;;;;;;
60227;SPS30;46091;46.512;6.626;2023-03-11T01:37:28;7.25;;6.25;;;;;;;
60227;SPS30;46091;46.512;6.626;2023-03-11T01:39:31;4.75;;3.75;;;;;;;
60227;SPS30;46091;46.512;6.626;2023-03-11T01:41:34;4.50;;3.50;;;;;;;
60227;SPS30;46091;46.512;6.626;2023-03-11T01:43:45;4.25;;3.25;;;;;;;
60227;SPS30;46091;46.512;6.626;2023-03-11T01:48:15;6.67;;5.67;;;;;;;
60227;SPS30;46091;46.512;6.626;2023-03-11T01:50:19;3.75;;2.75;;;;;;;
60227;SPS30;46091;46.512;6.626;2023-03-11T01:52:22;4.00;;3.00;;;;;;;
60227;SPS30;46091;46.512;6.626;2023-03-11T01:54:26;3.75;;2.75;;;;;;;
60227;SPS30;46091;46.512;6.626;2023-03-11T01:56:32;5.00;;4.00;;;;;;;
60227;SPS30;46091;46.512;6.626;2023-03-11T01:58:37;7.75;;6.75;;;;;;;
60227;SPS30;46091;46.512;6.626;2023-03-11T02:00:45;7.00;;6.00;;;;;;;
60227;SPS30;46091;46.512;6.626;2023-03-11T02:02:49;3.00;;2.00;;;;;;;
60227;SPS30;46091;46.512;6.626;2023-03-11T02:04:55;2.00;;1.00;;;;;;;
60227;SPS30;46091;46.512;6.626;2023-03-11T02:06:58;3.00;;2.00;;;;;;;
60227;SPS30;46091;46.512;6.626;2023-03-11T02:09:02;3.00;;2.00;;;;;;;
60227;SPS30;46091;46.512;6.626;2023-03-11T02:11:05;2.00;;1.00;;;;;;;
60227;SPS30;46091;46.512;6.626;2023-03-11T02:13:11;3.00;;2.00;;;;;;;
60227;SPS30;46091;46.512;6.626;2023-03-11T02:15:14;6.50;;5.50;;;;;;;
60227;SPS30;46091;46.512;6.626;2023-03-11T02:17:17;3.00;;2.00;;;;;;;
60227;SPS30;46091;46.512;6.626;2023-03-11T02:19:21;4.00;;3.00;;;;;;;
60227;SPS30;46091;46.512;6.626;2023-03-11T02:21:33;5.00;;4.00;;;;;;;
60227;SPS30;46091;46.512;6.626;2023-03-11T02:23:38;5.00;;4.00;;;;;;;
60227;SPS30;46091;46.512;6.626;2023-03-11T02:25:47;3.50;;2.50;;;;;;;
60227;SPS30;46091;46.512;6.626;2023-03-11T02:27:56;1.50;;0.50;;;;;;;
60227;SPS30;46091;46.512;6.626;2023-03-11T02:30:01;2.75;;1.75;;;;;;;
60227;SPS30;46091;46.512;6.626;2023-03-11T02:32:06;2.50;;1.50;;;;;;;
60227;SPS30;46091;46.512;6.626;2023-03-11T02:34:13;3.00;;2.00;;;;;;;
60227;SPS30;46091;46.512;6.626;2023-03-11T02:36:29;3.00;;2.00;;;;;;;
60227;SPS30;46091;46.512;6.626;2023-03-11T02:38:33;3.50;;2.50;;;;;;;
60227;SPS30;46091;46.512;6.626;2023-03-11T02:40:38;3.00;;2.00;;;;;;;
60227;SPS30;46091;46.512;6.626;2023-03-11T02:42:48;3.00;;2.00;;;;;;;
60227;SPS30;46091;46.512;6.626;2023-03-11T02:44:56;3.25;;2.25;;;;;;;
60227;SPS30;46091;46.512;6.626;2023-03-11T02:47:01;2.25;;1.25;;;;;;;
60227;SPS30;46091;46.512;6.626;2023-03-11T02:49:04;3.00;;2.00;;;;;;;
60227;SPS30;46091;46.512;6.626;2023-03-11T02:51:09;3.25;;2.25;;;;;;;
60227;SPS30;46091;46.512;6.626;2023-03-11T02:53:12;3.00;;2.00;;;;;;;
60227;SPS30;46091;46.512;6.626;2023-03-11T02:55:15;3.00;;2.00;;;;;;;
60227;SPS30;46091;46.512;6.626;2023-03-11T02:57:20;3.00;;2.00;;;;;;;
60227;SPS30;46091;46.512;6.626;2023-03-11T02:59:23;4.00;;3.00;;;;;;;
60227;SPS30;46091;46.512;6.626;2023-03-11T03:01:27;4.00;;3.00;;;;;;;
60227;SPS30;46091;46.512;6.626;2023-03-11T03:03:30;3.50;;2.50;;;;;;;
60227;SPS30;46091;46.512;6.626;2023-03-11T03:05:33;3.00;;2.00;;;;;;;
60227;SPS30;46091;46.512;6.626;2023-03-11T03:07:36;3.00;;2.00;;;;;;;
60227;SPS30;46091;46.512;6.626;2023-03-11T03:09:39;3.00;;2.00;;;;;;;
60227;SPS30;46091;46.512;6.626;2023-03-11T03:11:42;3.25;;2.25;;;;;;;
60227;SPS30;46091;46.512;6.626;2023-03-11T03:13:45;4.50;;3.50;;;;;;;
60227;SPS30;46091;46.512;6.626;2023-03-11T03:15:48;3.00;;2.00;;;;;;;
60227;SPS30;46091;46.512;6.626;2023-03-11T03:17:52;3.00;;2.00;;;;;;;
60227;SPS30;46091;46.512;6.626;2023-03-11T03:19:55;2.00;;1.00;;;;;;;
60227;SPS30;46091;46.512;6.626;2023-03-11T03:21:58;2.00;;1.00;;;;;;;
60227;SPS30;46091;46.512;6.626;2023-03-11T03:24:01;3.50;;2.50;;;;;;;
60227;SPS30;46091;46.512;6.626;2023-03-11T03:26:04;3.00;;2.00;;;;;;;
60227;SPS30;46091;46.512;6.626;2023-03-11T03:28:07;2.75;;1.75;;;;;;;
60227;SPS30;46091;46.512;6.626;2023-03-11T03:30:11;2.75;;1.75;;;;;;;
60227;SPS30;46091;46.512;6.626;2023-03-11T03:32:14;2.00;;1.00;;;;;;;
60227;SPS30;46091;46.512;6.626;2023-03-11T03:34:19;2.00;;1.00;;;;;;;
60227;SPS30;46091;46.512;6.626;2023-03-11T03:36:22;3.00;;2.00;;;;;;;
60227;SPS30;46091;46.512;6.626;2023-03-11T03:38:25;3.00;;2.00;;;;;;;
60227;SPS30;46091;46.512;6.626;2023-03-11T03:40:28;2.25;;1.25;;;;;;;
60227;SPS30;46091;46.512;6.626;2023-03-11T03:42:30;2.00;;1.00;;;;;;;
60227;SPS30;46091;46.512;6.626;2023-03-11T03:44:33;4.00;;3.00;;;;;;;
60227;SPS30;46091;46.512;6.626;2023-03-11T03:46:36;4.25;;3.25;;;;;;;
60227;SPS30;46091;46.512;6.626;2023-03-11T03:48:39;4.00;;3.00;;;;;;;
60227;SPS30;46091;46.512;6.626;2023-03-11T03:50:44;3.67;;2.67;;;;;;;
60227;SPS30;46091;46.512;6.626;2023-03-11T03:52:47;3.25;;2.25;;;;;;;
60227;SPS30;46091;46.512;6.626;2023-03-11T03:54:50;2.00;;1.00;;;;;;;
60227;SPS30;46091;46.512;6.626;2023-03-11T03:56:53;3.00;;2.00;;;;;;;
60227;SPS30;46091;46.512;6.626;2023-03-11T03:58:56;3.00;;2.00;;;;;;;
60227;SPS30;46091;46.512;6.626;2023-03-11T04:00:59;3.00;;2.00;;;;;;;
60227;SPS30;46091;46.512;6.626;2023-03-11T04:03:02;2.00;;1.00;;;;;;;
60227;SPS30;46091;46.512;6.626;2023-03-11T04:05:06;3.00;;2.00;;;;;;;
60227;SPS30;46091;46.512;6.626;2023-03-11T04:07:11;3.00;;2.00;;;;;;;
60227;SPS30;46091;46.512;6.626;2023-03-11T04:09:14;3.00;;2.00;;;;;;;
60227;SPS30;46091;46.512;6.626;2023-03-11T04:11:17;3.50;;2.50;;;;;;;
60227;SPS30;46091;46.512;6.626;2023-03-11T04:13:20;2.00;;1.00;;;;;;;
60227;SPS30;46091;46.512;6.626;2023-03-11T04:15:23;4.00;;3.00;;;;;;;
60227;SPS30;46091;46.512;6.626;2023-03-11T04:17:26;5.00;;4.00;;;;;;;
60227;SPS30;46091;46.512;6.626;2023-03-11T04:19:29;4.75;;3.75;;;;;;;
60227;SPS30;46091;46.512;6.626;2023-03-11T04:21:32;4.67;;3.67;;;;;;;
60227;SPS30;46091;46.512;6.626;2023-03-11T04:23:36;4.00;;3.00;;;;;;;
60227;SPS30;46091;46.512;6.626;2023-03-11T04:25:39;3.00;;2.00;;;;;;;
60227;SPS30;46091;46.512;6.626;2023-03-11T04:27:42;3.00;;2.00;;;;;;;
60227;SPS30;46091;46.512;6.626;2023-03-11T04:29:46;3.50;;2.50;;;;;;;
60227;SPS30;46091;46.512;6.626;2023-03-11T04:31:49;3.00;;2.00;;;;;;;
60227;SPS30;46091;46.512;6.626;2023-03-11T04:33:52;5.75;;4.75;;;;;;;
60227;SPS30;46091;46.512;6.626;2023-03-11T04:35:55;3.25;;2.25;;;;;;;
60227;SPS30;46091;46.512;6.626;2023-03-11T04:37:58;3.25;;2.25;;;;;;;
60227;SPS30;46091;46.512;6.626;2023-03-11T04:40:03;2.75;;1.75;;;;;;;
60227;SPS30;46091;46.512;6.626;2023-03-11T04:42:07;3.00;;2.00;;;;;;;
60227;SPS30;46091;46.512;6.626;2023-03-11T04:44:09;2.75;;1.75;;;;;;;
60227;SPS30;46091;46.512;6.626;2023-03-11T04:46:12;3.00;;2.00;;;;;;;
60227;SPS30;46091;46.512;6.626;2023-03-11T04:48:15;3.00;;2.00;;;;;;;
60227;SPS30;46091;46.512;6.626;2023-03-11T04:50:18;3.00;;2.00;;;;;;;
60227;SPS30;46091;46.512;6.626;2023-03-11T04:52:21;3.00;;2.00;;;;;;;
60227;SPS30;46091;46.512;6.626;2023-03-11T04:54:24;3.75;;2.75;;;;;;;
60227;SPS30;46091;46.512;6.626;2023-03-11T04:56:28;5.50;;4.50;;;;;;;
60227;SPS30;46091;46.512;6.626;2023-03-11T04:58:31;6.00;;5.00;;;;;;;
60227;SPS30;46091;46.512;6.626;2023-03-11T05:00:34;3.25;;2.25;;;;;;;
60227;SPS30;46091;46.512;6.626;2023-03-11T05:02:38;4.00;;3.00;;;;;;;
60227;SPS30;46091;46.512;6.626;2023-03-11T05:04:42;5.50;;4.50;;;;;;;
60227;SPS30;46091;46.512;6.626;2023-03-11T05:06:46;3.00;;2.00;;;;;;;
60227;SPS30;46091;46.512;6.626;2023-03-11T05:08:51;2.50;;1.50;;;;;;;
60227;SPS30;46091;46.512;6.626;2023-03-11T05:10:54;2.75;;1.75;;;;;;;
60227;SPS30;46091;46.512;6.626;2023-03-11T05:12:58;2.00;;1.00;;;;;;;
60227;SPS30;46091;46.512;6.626;2023-03-11T05:15:01;2.00;;1.00;;;;;;;
60227;SPS30;46091;46.512;6.626;2023-03-11T05:17:04;2.00;;1.00;;;;;;;
60227;SPS30;46091;46.512;6.626;2023-03-11T05:19:07;3.00;;2.00;;;;;;;
60227;SPS30;46091;46.512;6.626;2023-03-11T05:21:24;3.00;;2.00;;;;;;;
60227;SPS30;46091;46.512;6.626;2023-03-11T05:23:27;4.00;;3.00;;;;;;;
60227;SPS30;46091;46.512;6.626;2023-03-11T05:25:30;2.00;;1.00;;;;;;;
60227;SPS30;46091;46.512;6.626;2023-03-11T05:27:33;2.25;;1.25;;;;;;;
60227;SPS30;46091;46.512;6.626;2023-03-11T05:29:37;5.00;;4.00;;;;;;;
60227;SPS30;46091;46.512;6.626;2023-03-11T05:31:40;3.25;;2.25;;;;;;;
60227;SPS30;46091;46.512;6.626;2023-03-11T05:33:43;3.75;;2.75;;;;;;;
60227;SPS30;46091;46.512;6.626;2023-03-11T05:35:45;3.00;;2.00;;;;;;;
60227;SPS30;46091;46.512;6.626;2023-03-11T05:37:48;3.00;;2.00;;;;;;;
60227;SPS30;46091;46.512;6.626;2023-03-11T05:39:53;3.00;;2.00;;;;;;;
60227;SPS30;46091;46.512;6.626;2023-03-11T05:41:56;2.00;;1.00;;;;;;;
60227;SPS30;46091;46.512;6.626;2023-03-11T05:43:59;2.00;;1.00;;;;;;;
60227;SPS30;46091;46.512;6.626;2023-03-11T05:46:03;2.00;;1.00;;;;;;;
60227;SPS30;46091;46.512;6.626;2023-03-11T05:48:06;4.00;;3.00;;;;;;;
60227;SPS30;46091;46.512;6.626;2023-03-11T05:50:10;3.00;;2.00;;;;;;;
60227;SPS30;46091;46.512;6.626;2023-03-11T05:52:14;4.00;;3.00;;;;;;;
60227;SPS30;46091;46.512;6.626;2023-03-11T05:54:17;3.00;;2.00;;;;;;;
60227;SPS30;46091;46.512;6.626;2023-03-11T05:56:21;5.00;;4.00;;;;;;;
60227;SPS30;46091;46.512;6.626;2023-03-11T06:00:27;3.00;;2.00;;;;;;;
60227;SPS30;46091;46.512;6.626;2023-03-11T06:02:32;3.00;;2.00;;;;;;;
60227;SPS30;46091;46.512;6.626;2023-03-11T06:04:34;4.50;;3.50;;;;;;;
60227;SPS30;46091;46.512;6.626;2023-03-11T06:06:38;4.75;;3.75;;;;;;;
60227;SPS30;46091;46.512;6.626;2023-03-11T06:08:41;7.00;;6.00;;;;;;;
60227;SPS30;46091;46.512;6.626;2023-03-11T06:10:50;3.00;;2.00;;;;;;;
60227;SPS30;46091;46.512;6.626;2023-03-11T06:12:52;2.00;;1.00;;;;;;;
60227;SPS30;46091;46.512;6.626;2023-03-11T06:14:55;3.00;;2.00;;;;;;;
60227;SPS30;46091;46.512;6.626;2023-03-11T06:16:58;4.00;;3.00;;;;;;;
60227;SPS30;46091;46.512;6.626;2023-03-11T06:19:03;3.00;;2.00;;;;;;;
60227;SPS30;46091;46.512;6.626;2023-03-11T06:21:06;2.00;;1.00;;;;;;;
60227;SPS30;46091;46.512;6.626;2023-03-11T06:23:09;2.00;;1.00;;;;;;;
60227;SPS30;46091;46.512;6.626;2023-03-11T06:25:12;5.00;;4.00;;;;;;;
60227;SPS30;46091;46.512;6.626;2023-03-11T06:27:15;6.00;;5.00;;;;;;;
60227;SPS30;46091;46.512;6.626;2023-03-11T06:29:18;2.75;;1.75;;;;;;;
60227;SPS30;46091;46.512;6.626;2023-03-11T06:31:22;3.00;;2.00;;;;;;;
60227;SPS30;46091;46.512;6.626;2023-03-11T06:33:27;4.00;;3.00;;;;;;;
60227;SPS30;46091;46.512;6.626;2023-03-11T06:35:31;2.00;;1.00;;;;;;;
60227;SPS30;46091;46.512;6.626;2023-03-11T06:37:34;3.00;;2.00;;;;;;;
60227;SPS30;46091;46.512;6.626;2023-03-11T06:39:37;4.00;;3.00;;;;;;;
60227;SPS30;46091;46.512;6.626;2023-03-11T06:41:40;5.25;;4.25;;;;;;;
60227;SPS30;46091;46.512;6.626;2023-03-11T06:43:44;3.25;;2.25;;;;;;;
60227;SPS30;46091;46.512;6.626;2023-03-11T06:45:46;2.00;;1.00;;;;;;;
60227;SPS30;46091;46.512;6.626;2023-03-11T06:47:50;3.25;;2.25;;;;;;;
60227;SPS30;46091;46.512;6.626;2023-03-11T06:49:52;3.00;;2.00;;;;;;;
60227;SPS30;46091;46.512;6.626;2023-03-11T06:51:57;2.00;;1.00;;;;;;;
60227;SPS30;46091;46.512;6.626;2023-03-11T06:54:00;2.00;;1.00;;;;;;;
60227;SPS30;46091;46.512;6.626;2023-03-11T06:56:03;2.00;;1.00;;;;;;;
60227;SPS30;46091;46.512;6.626;2023-03-11T06:58:08;6.00;;5.00;;;;;;;
60227;SPS30;46091;46.512;6.626;2023-03-11T07:00:11;6.00;;5.00;;;;;;;
60227;SPS30;46091;46.512;6.626;2023-03-11T07:02:15;3.50;;2.50;;;;;;;
60227;SPS30;46091;46.512;6.626;2023-03-11T07:04:18;2.00;;1.00;;;;;;;
60227;SPS30;46091;46.512;6.626;2023-03-11T07:06:22;3.00;;2.00;;;;;;;
60227;SPS30;46091;46.512;6.626;2023-03-11T07:08:28;3.00;;2.00;;;;;;;
60227;SPS30;46091;46.512;6.626;2023-03-11T07:10:31;2.00;;1.00;;;;;;;
60227;SPS30;46091;46.512;6.626;2023-03-11T07:12:34;4.00;;3.00;;;;;;;
60227;SPS30;46091;46.512;6.626;2023-03-11T07:14:37;6.00;;5.00;;;;;;;
60227;SPS30;46091;46.512;6.626;2023-03-11T07:16:40;7.75;;6.75;;;;;;;
60227;SPS30;46091;46.512;6.626;2023-03-11T07:18:44;5.75;;4.75;;;;;;;
60227;SPS30;46091;46.512;6.626;2023-03-11T07:20:48;4.75;;3.75;;;;;;;
60227;SPS30;46091;46.512;6.626;2023-03-11T07:22:51;4.00;;3.00;;;;;;;
60227;SPS30;46091;46.512;6.626;2023-03-11T07:24:55;3.00;;2.00;;;;;;;
60227;SPS30;46091;46.512;6.626;2023-03-11T07:26:58;3.00;;2.00;;;;;;;
60227;SPS30;46091;46.512;6.626;2023-03-11T07:29:01;4.50;;3.50;;;;;;;
60227;SPS30;46091;46.512;6.626;2023-03-11T07:31:08;2.00;;1.00;;;;;;;
60227;SPS30;46091;46.512;6.626;2023-03-11T07:33:11;4.50;;3.50;;;;;;;
60227;SPS30;46091;46.512;6.626;2023-03-11T07:35:14;4.00;;3.00;;;;;;;
60227;SPS30;46091;46.512;6.626;2023-03-11T07:37:18;4.00;;3.00;;;;;;;
60227;SPS30;46091;46.512;6.626;2023-03-11T07:39:21;3.75;;2.75;;;;;;;
60227;SPS30;46091;46.512;6.626;2023-03-11T07:41:25;3.00;;2.00;;;;;;;
60227;SPS30;46091;46.512;6.626;2023-03-11T07:43:28;2.50;;1.50;;;;;;;
60227;SPS30;46091;46.512;6.626;2023-03-11T07:45:31;3.00;;2.00;;;;;;;
60227;SPS30;46091;46.512;6.626;2023-03-11T07:47:34;2.00;;1.00;;;;;;;
60227;SPS30;46091;46.512;6.626;2023-03-11T07:49:37;3.75;;2.75;;;;;;;
60227;SPS30;46091;46.512;6.626;2023-03-11T07:51:40;3.00;;2.00;;;;;;;
60227;SPS30;46091;46.512;6.626;2023-03-11T07:53:44;4.25;;3.25;;;;;;;
60227;SPS30;46091;46.512;6.626;2023-03-11T07:55:47;3.50;;2.50;;;;;;;
60227;SPS30;46091;46.512;6.626;2023-03-11T07:57:52;2.75;;1.75;;;;;;;
60227;SPS30;46091;46.512;6.626;2023-03-11T07:59:55;4.00;;3.00;;;;;;;
60227;SPS30;46091;46.512;6.626;2023-03-11T08:01:57;3.00;;2.00;;;;;;;
60227;SPS30;46091;46.512;6.626;2023-03-11T08:04:01;4.00;;3.00;;;;;;;
60227;SPS30;46091;46.512;6.626;2023-03-11T08:06:10;3.50;;2.50;;;;;;;
60227;SPS30;46091;46.512;6.626;2023-03-11T08:08:14;3.00;;2.00;;;;;;;
60227;SPS30;46091;46.512;6.626;2023-03-11T08:10:17;3.00;;2.00;;;;;;;
60227;SPS30;46091;46.512;6.626;2023-03-11T08:12:20;3.00;;2.00;;;;;;;
60227;SPS30;46091;46.512;6.626;2023-03-11T08:14:24;3.00;;2.00;;;;;;;
60227;SPS30;46091;46.512;6.626;2023-03-11T08:16:27;4.00;;3.00;;;;;;;
60227;SPS30;46091;46.512;6.626;2023-03-11T08:18:31;3.75;;2.75;;;;;;;
60227;SPS30;46091;46.512;6.626;2023-03-11T08:20:36;3.00;;2.00;;;;;;;
60227;SPS30;46091;46.512;6.626;2023-03-11T08:22:38;4.00;;3.00;;;;;;;
60227;SPS30;46091;46.512;6.626;2023-03-11T08:24:57;4.00;;3.00;;;;;;;
60227;SPS30;46091;46.512;6.626;2023-03-11T08:27:00;4.50;;3.50;;;;;;;
60227;SPS30;46091;46.512;6.626;2023-03-11T08:29:03;3.00;;2.00;;;;;;;
60227;SPS30;46091;46.512;6.626;2023-03-11T08:31:11;3.00;;2.00;;;;;;;
60227;SPS30;46091;46.512;6.626;2023-03-11T08:33:15;4.00;;3.00;;;;;;;
60227;SPS30;46091;46.512;6.626;2023-03-11T08:35:18;4.00;;3.00;;;;;;;
60227;SPS30;46091;46.512;6.626;2023-03-11T08:37:21;3.00;;2.00;;;;;;;
60227;SPS30;46091;46.512;6.626;2023-03-11T08:39:24;3.00;;2.00;;;;;;;
60227;SPS30;46091;46.512;6.626;2023-03-11T08:41:27;3.00;;2.00;;;;;;;
60227;SPS30;46091;46.512;6.626;2023-03-11T08:43:30;4.00;;3.00;;;;;;;
60227;SPS30;46091;46.512;6.626;2023-03-11T08:45:33;3.00;;2.00;;;;;;;
60227;SPS30;46091;46.512;6.626;2023-03-11T08:47:37;3.75;;2.75;;;;;;;
60227;SPS30;46091;46.512;6.626;2023-03-11T08:49:41;3.50;;2.50;;;;;;;
60227;SPS30;46091;46.512;6.626;2023-03-11T08:51:44;4.00;;3.00;;;;;;;
60227;SPS30;46091;46.512;6.626;2023-03-11T08:53:47;5.25;;4.25;;;;;;;
60227;SPS30;46091;46.512;6.626;2023-03-11T08:55:51;4.00;;3.00;;;;;;;
60227;SPS30;46091;46.512;6.626;2023-03-11T08:57:54;5.00;;4.00;;;;;;;
60227;SPS30;46091;46.512;6.626;2023-03-11T08:59:57;4.75;;3.75;;;;;;;
60227;SPS30;46091;46.512;6.626;2023-03-11T09:02:00;4.00;;3.00;;;;;;;
60227;SPS30;46091;46.512;6.626;2023-03-11T09:04:04;3.00;;2.00;;;;;;;
60227;SPS30;46091;46.512;6.626;2023-03-11T09:06:09;3.75;;2.75;;;;;;;
60227;SPS30;46091;46.512;6.626;2023-03-11T09:08:15;4.00;;3.00;;;;;;;
60227;SPS30;46091;46.512;6.626;2023-03-11T09:10:18;3.00;;2.00;;;;;;;
60227;SPS30;46091;46.512;6.626;2023-03-11T09:12:21;4.25;;3.25;;;;;;;
60227;SPS30;46091;46.512;6.626;2023-03-11T09:14:24;3.00;;2.00;;;;;;;
60227;SPS30;46091;46.512;6.626;2023-03-11T09:16:27;4.00;;3.00;;;;;;;
60227;SPS30;46091;46.512;6.626;2023-03-11T09:18:30;6.67;;5.67;;;;;;;
60227;SPS30;46091;46.512;6.626;2023-03-11T09:20:37;4.50;;3.50;;;;;;;
60227;SPS30;46091;46.512;6.626;2023-03-11T09:22:40;6.00;;5.00;;;;;;;
60227;SPS30;46091;46.512;6.626;2023-03-11T09:24:43;5.00;;4.00;;;;;;;
60227;SPS30;46091;46.512;6.626;2023-03-11T09:26:46;4.00;;3.00;;;;;;;
60227;SPS30;46091;46.512;6.626;2023-03-11T09:28:49;5.00;;4.00;;;;;;;
60227;SPS30;46091;46.512;6.626;2023-03-11T09:30:52;3.75;;2.75;;;;;;;
60227;SPS30;46091;46.512;6.626;2023-03-11T09:32:55;3.75;;2.75;;;;;;;
60227;SPS30;46091;46.512;6.626;2023-03-11T09:34:58;4.00;;3.00;;;;;;;
60227;SPS30;46091;46.512;6.626;2023-03-11T09:37:02;4.00;;3.00;;;;;;;
60227;SPS30;46091;46.512;6.626;2023-03-11T09:39:05;8.00;;7.00;;;;;;;
60227;SPS30;46091;46.512;6.626;2023-03-11T09:41:09;4.00;;3.00;;;;;;;
60227;SPS30;46091;46.512;6.626;2023-03-11T09:43:27;6.00;;5.00;;;;;;;
60227;SPS30;46091;46.512;6.626;2023-03-11T09:45:41;5.00;;4.00;;;;;;;
60227;SPS30;46091;46.512;6.626;2023-03-11T09:47:53;4.50;;3.50;;;;;;;
60227;SPS30;46091;46.512;6.626;2023-03-11T09:52:35;4.00;;3.00;;;;;;;
60227;SPS30;46091;46.512;6.626;2023-03-11T09:54:44;6.00;;5.00;;;;;;;
60227;SPS30;46091;46.512;6.626;2023-03-11T09:56:49;4.33;;3.33;;;;;;;
60227;SPS30;46091;46.512;6.626;2023-03-11T09:58:53;3.00;;2.00;;;;;;;
60227;SPS30;46091;46.512;6.626;2023-03-11T10:01:01;4.00;;3.00;;;;;;;
60227;SPS30;46091;46.512;6.626;2023-03-11T10:03:05;4.25;;3.25;;;;;;;
60227;SPS30;46091;46.512;6.626;2023-03-11T10:05:17;4.75;;3.75;;;;;;;
60227;SPS30;46091;46.512;6.626;2023-03-11T10:07:24;5.00;;4.00;;;;;;;
60227;SPS30;46091;46.512;6.626;2023-03-11T10:09:36;6.25;;5.25;;;;;;;
60227;SPS30;46091;46.512;6.626;2023-03-11T10:11:45;6.50;;5.50;;;;;;;
60227;SPS30;46091;46.512;6.626;2023-03-11T10:14:00;5.00;;4.00;;;;;;;
60227;SPS30;46091;46.512;6.626;2023-03-11T10:16:17;5.00;;4.00;;;;;;;
60227;SPS30;46091;46.512;6.626;2023-03-11T10:18:32;6.25;;5.25;;;;;;;
60227;SPS30;46091;46.512;6.626;2023-03-11T10:20:47;8.50;;7.50;;;;;;;
60227;SPS30;46091;46.512;6.626;2023-03-11T10:23:01;5.00;;4.00;;;;;;;
60227;SPS30;46091;46.512;6.626;2023-03-11T10:25:15;6.00;;5.00;;;;;;;
60227;SPS30;46091;46.512;6.626;2023-03-11T10:27:20;5.00;;4.00;;;;;;;
60227;SPS30;46091;46.512;6.626;2023-03-11T10:29:28;5.00;;4.00;;;;;;;
60227;SPS30;46091;46.512;6.626;2023-03-11T10:31:33;6.00;;5.00;;;;;;;
60227;SPS30;46091;46.512;6.626;2023-03-11T10:33:41;6.50;;5.50;;;;;;;
60227;SPS30;46091;46.512;6.626;2023-03-11T10:35:49;4.00;;3.00;;;;;;;
60227;SPS30;46091;46.512;6.626;2023-03-11T10:37:57;5.00;;4.00;;;;;;;
60227;SPS30;46091;46.512;6.626;2023-03-11T10:40:13;3.25;;2.25;;;;;;;
60227;SPS30;46091;46.512;6.626;2023-03-11T10:42:25;6.50;;5.50;;;;;;;
60227;SPS30;46091;46.512;6.626;2023-03-11T10:44:31;5.00;;4.00;;;;;;;
60227;SPS30;46091;46.512;6.626;2023-03-11T10:46:37;4.75;;3.75;;;;;;;
60227;SPS30;46091;46.512;6.626;2023-03-11T10:48:40;8.50;;7.50;;;;;;;
60227;SPS30;46091;46.512;6.626;2023-03-11T10:50:47;7.25;;6.25;;;;;;;
60227;SPS30;46091;46.512;6.626;2023-03-11T10:53:03;6.00;;5.00;;;;;;;
60227;SPS30;46091;46.512;6.626;2023-03-11T10:55:10;3.00;;2.00;;;;;;;
60227;SPS30;46091;46.512;6.626;2023-03-11T10:57:23;5.00;;4.00;;;;;;;
60227;SPS30;46091;46.512;6.626;2023-03-11T10:59:29;6.75;;5.75;;;;;;;
60227;SPS30;46091;46.512;6.626;2023-03-11T11:01:33;10.00;;9.00;;;;;;;
60227;SPS30;46091;46.512;6.626;2023-03-11T11:03:37;14.50;;13.50;;;;;;;
60227;SPS30;46091;46.512;6.626;2023-03-11T11:05:43;10.75;;9.75;;;;;;;
60227;SPS30;46091;46.512;6.626;2023-03-11T11:07:47;5.75;;4.75;;;;;;;
60227;SPS30;46091;46.512;6.626;2023-03-11T11:10:03;4.00;;3.00;;;;;;;
60227;SPS30;46091;46.512;6.626;2023-03-11T11:12:15;5.00;;4.00;;;;;;;
60227;SPS30;46091;46.512;6.626;2023-03-11T11:14:20;4.00;;3.00;;;;;;;
60227;SPS30;46091;46.512;6.626;2023-03-11T11:16:23;6.50;;5.50;;;;;;;
60227;SPS30;46091;46.512;6.626;2023-03-11T11:18:27;9.50;;8.50;;;;;;;
60227;SPS30;46091;46.512;6.626;2023-03-11T11:20:33;18.50;;17.50;;;;;;;
60227;SPS30;46091;46.512;6.626;2023-03-11T11:22:36;9.75;;8.75;;;;;;;
60227;SPS30;46091;46.512;6.626;2023-03-11T11:24:42;13.50;;12.50;;;;;;;
60227;SPS30;46091;46.512;6.626;2023-03-11T11:27:01;10.00;;9.00;;;;;;;
60227;SPS30;46091;46.512;6.626;2023-03-11T11:29:06;4.50;;3.50;;;;;;;
60227;SPS30;46091;46.512;6.626;2023-03-11T11:31:21;7.25;;6.25;;;;;;;
60227;SPS30;46091;46.512;6.626;2023-03-11T11:33:26;7.00;;6.00;;;;;;;
60227;SPS30;46091;46.512;6.626;2023-03-11T11:35:31;10.75;;9.75;;;;;;;
60227;SPS30;46091;46.512;6.626;2023-03-11T11:37:34;6.50;;5.50;;;;;;;
60227;SPS30;46091;46.512;6.626;2023-03-11T11:39:43;10.75;;9.75;;;;;;;
60227;SPS30;46091;46.512;6.626;2023-03-11T11:41:52;8.00;;7.00;;;;;;;
60227;SPS30;46091;46.512;6.626;2023-03-11T11:43:58;7.00;;6.00;;;;;;;
60227;SPS30;46091;46.512;6.626;2023-03-11T11:46:04;6.25;;5.25;;;;;;;
60227;SPS30;46091;46.512;6.626;2023-03-11T11:48:16;5.00;;4.00;;;;;;;
60227;SPS30;46091;46.512;6.626;2023-03-11T11:50:23;6.75;;5.75;;;;;;;
60227;SPS30;46091;46.512;6.626;2023-03-11T11:52:31;6.00;;5.00;;;;;;;
60227;SPS30;46091;46.512;6.626;2023-03-11T11:54:39;5.25;;4.25;;;;;;;
60227;SPS30;46091;46.512;6.626;2023-03-11T11:56:47;5.00;;4.00;;;;;;;
60227;SPS30;46091;46.512;6.626;2023-03-11T11:58:50;5.00;;4.00;;;;;;;
60227;SPS30;46091;46.512;6.626;2023-03-11T12:00:57;5.00;;4.00;;;;;;;
60227;SPS30;46091;46.512;6.626;2023-03-11T12:03:24;6.00;;5.00;;;;;;;
60227;SPS30;46091;46.512;6.626;2023-03-11T12:05:44;9.50;;8.50;;;;;;;
60227;SPS30;46091;46.512;6.626;2023-03-11T12:08:04;4.75;;3.75;;;;;;;